SKW5341 KSAN-KLAX
Flight info
| Callsign | SKW5341 |
|---|---|
| Flight time | N/A |
| Altitude | 10000 |
| Route | CWARD2 SLI |
| Aircraft | E75L/M-SDE3GILORVW/S |
Departure
| Time | N/A |
|---|---|
| Airport | San Diego International Airport (KSAN) |
Arrival
| Time | 2026-05-06 02:09 |
|---|---|
| Airport | Los Angeles International Airport (KLAX) |
| Time | Latitude | Longitude | Altitude | Speed | Heading |
|---|---|---|---|---|---|
| 2026-05-06 01:52 | 33.08803 | -117.75567 | 9949 ft | 287 kts | 321° |
| 2026-05-06 01:53 | 33.10302 | -117.77036 | 9906 ft | 273 kts | 322° |
| 2026-05-06 01:53 | 33.11764 | -117.78459 | 9910 ft | 272 kts | 322° |
| 2026-05-06 01:53 | 33.13231 | -117.79918 | 9973 ft | 278 kts | 322° |
| 2026-05-06 01:53 | 33.14714 | -117.81418 | 9985 ft | 280 kts | 321° |
| 2026-05-06 01:54 | 33.16196 | -117.82930 | 9985 ft | 280 kts | 321° |
| 2026-05-06 01:54 | 33.17175 | -117.83932 | 9984 ft | 280 kts | 321° |
| 2026-05-06 01:54 | 33.18663 | -117.85433 | 9977 ft | 279 kts | 325° |
| 2026-05-06 01:54 | 33.20409 | -117.86394 | 9963 ft | 276 kts | 346° |
| 2026-05-06 01:55 | 33.22893 | -117.87090 | 9971 ft | 277 kts | 348° |
| 2026-05-06 01:55 | 33.24172 | -117.87407 | 9973 ft | 277 kts | 349° |
| 2026-05-06 01:55 | 33.26060 | -117.87863 | 9965 ft | 277 kts | 349° |
| 2026-05-06 01:55 | 33.27948 | -117.88323 | 9967 ft | 277 kts | 349° |
| 2026-05-06 01:56 | 33.29810 | -117.88784 | 9963 ft | 276 kts | 349° |
| 2026-05-06 01:56 | 33.31694 | -117.89254 | 9963 ft | 276 kts | 349° |
| 2026-05-06 01:56 | 33.33579 | -117.89724 | 9968 ft | 276 kts | 349° |
| 2026-05-06 01:56 | 33.35460 | -117.90191 | 9968 ft | 277 kts | 349° |
| 2026-05-06 01:57 | 33.37347 | -117.90660 | 9973 ft | 277 kts | 349° |
| 2026-05-06 01:57 | 33.39234 | -117.91229 | 9669 ft | 282 kts | 345° |
| 2026-05-06 01:57 | 33.41108 | -117.91897 | 9292 ft | 280 kts | 344° |
| 2026-05-06 01:57 | 33.42970 | -117.92570 | 8912 ft | 277 kts | 344° |
| 2026-05-06 01:58 | 33.44809 | -117.93240 | 8541 ft | 274 kts | 344° |
| 2026-05-06 01:58 | 33.46625 | -117.93903 | 8170 ft | 271 kts | 344° |
| 2026-05-06 01:58 | 33.48424 | -117.94559 | 7809 ft | 268 kts | 344° |
| 2026-05-06 01:58 | 33.50202 | -117.95206 | 7452 ft | 266 kts | 343° |
| 2026-05-06 01:59 | 33.51967 | -117.95847 | 7113 ft | 265 kts | 343° |
| 2026-05-06 01:59 | 33.53722 | -117.96486 | 6910 ft | 259 kts | 343° |
| 2026-05-06 01:59 | 33.55416 | -117.97104 | 6914 ft | 260 kts | 343° |
| 2026-05-06 01:59 | 33.57181 | -117.97747 | 6940 ft | 265 kts | 343° |
| 2026-05-06 02:00 | 33.58955 | -117.98394 | 6961 ft | 267 kts | 343° |
| 2026-05-06 02:00 | 33.60704 | -117.99032 | 6961 ft | 267 kts | 343° |
| 2026-05-06 02:00 | 33.62477 | -117.99680 | 6958 ft | 266 kts | 343° |
| 2026-05-06 02:00 | 33.64247 | -118.00326 | 6953 ft | 266 kts | 343° |
| 2026-05-06 02:01 | 33.66018 | -118.00973 | 6951 ft | 266 kts | 343° |
| 2026-05-06 02:01 | 33.67805 | -118.01625 | 6914 ft | 267 kts | 343° |
| 2026-05-06 02:01 | 33.69568 | -118.02268 | 6919 ft | 266 kts | 343° |
| 2026-05-06 02:01 | 33.71342 | -118.02914 | 6910 ft | 266 kts | 343° |
| 2026-05-06 02:02 | 33.73113 | -118.03563 | 6900 ft | 266 kts | 343° |
| 2026-05-06 02:02 | 33.74883 | -118.04214 | 6890 ft | 266 kts | 343° |
| 2026-05-06 02:02 | 33.76654 | -118.04863 | 6894 ft | 266 kts | 343° |
| 2026-05-06 02:02 | 33.78308 | -118.05836 | 6862 ft | 268 kts | 324° |
| 2026-05-06 02:03 | 33.79787 | -118.07266 | 6449 ft | 275 kts | 321° |
| 2026-05-06 02:03 | 33.81230 | -118.08684 | 6012 ft | 274 kts | 321° |
| 2026-05-06 02:03 | 33.82592 | -118.10002 | 5609 ft | 267 kts | 321° |
| 2026-05-06 02:03 | 33.84028 | -118.11377 | 5206 ft | 259 kts | 321° |
| 2026-05-06 02:04 | 33.85429 | -118.12703 | 4837 ft | 254 kts | 321° |
| 2026-05-06 02:04 | 33.86813 | -118.13997 | 4455 ft | 250 kts | 321° |
| 2026-05-06 02:04 | 33.88178 | -118.15263 | 4086 ft | 245 kts | 321° |
| 2026-05-06 02:04 | 33.89515 | -118.16494 | 3725 ft | 240 kts | 321° |
| 2026-05-06 02:05 | 33.90818 | -118.17688 | 3359 ft | 236 kts | 321° |
| 2026-05-06 02:05 | 33.92131 | -118.18886 | 2966 ft | 232 kts | 321° |
| 2026-05-06 02:05 | 33.93347 | -118.19974 | 2954 ft | 209 kts | 321° |
| 2026-05-06 02:05 | 33.94487 | -118.20988 | 2931 ft | 202 kts | 320° |
| 2026-05-06 02:06 | 33.95544 | -118.22108 | 2927 ft | 204 kts | 308° |
| 2026-05-06 02:06 | 33.96049 | -118.23657 | 2908 ft | 201 kts | 269° |
| 2026-05-06 02:06 | 33.95646 | -118.25251 | 2901 ft | 201 kts | 246° |
| 2026-05-06 02:06 | 33.95076 | -118.26761 | 2883 ft | 189 kts | 248° |
| 2026-05-06 02:07 | 33.94705 | -118.28237 | 2716 ft | 183 kts | 263° |
| 2026-05-06 02:07 | 33.94601 | -118.29732 | 2550 ft | 169 kts | 265° |
| 2026-05-06 02:07 | 33.94473 | -118.31049 | 2316 ft | 152 kts | 262° |
| 2026-05-06 02:07 | 33.94285 | -118.32215 | 1979 ft | 139 kts | 262° |
| 2026-05-06 02:08 | 33.94184 | -118.33344 | 1559 ft | 133 kts | 267° |
| 2026-05-06 02:08 | 33.94115 | -118.34425 | 1191 ft | 127 kts | 266° |
| 2026-05-06 02:08 | 33.94010 | -118.35463 | 838 ft | 121 kts | 263° |
| 2026-05-06 02:08 | 33.93925 | -118.36459 | 582 ft | 122 kts | 261° |
| 2026-05-06 02:09 | 33.93815 | -118.37485 | 335 ft | 123 kts | 262° |
| 2026-05-06 02:09 | 33.93712 | -118.38499 | 125 ft | 117 kts | 262° |
| 2026-05-06 02:09 | 33.93626 | -118.39350 | 106 ft | 84 kts | 263° |
| 2026-05-06 02:09 | 33.93610 | -118.39784 | 107 ft | 36 kts | 278° |
| 2026-05-06 02:10 | 33.93649 | -118.39935 | 106 ft | 8 kts | 291° |
| 2026-05-06 02:10 | 33.93657 | -118.39964 | 104 ft | 9 kts | 285° |
| 2026-05-06 02:10 | 33.93663 | -118.40004 | 105 ft | 0 kts | 276° |
| 2026-05-06 02:10 | 33.93664 | -118.40013 | 105 ft | 2 kts | 274° |
| 2026-05-06 02:11 | 33.93663 | -118.40065 | 105 ft | 9 kts | 265° |
| 2026-05-06 02:11 | 33.93656 | -118.40151 | 105 ft | 12 kts | 263° |
| 2026-05-06 02:11 | 33.93644 | -118.40273 | 105 ft | 17 kts | 268° |
| 2026-05-06 02:11 | 33.93686 | -118.40400 | 106 ft | 11 kts | 318° |
| 2026-05-06 02:12 | 33.93721 | -118.40419 | 107 ft | 9 kts | 348° |
| 2026-05-06 02:12 | 33.93794 | -118.40429 | 105 ft | 12 kts | 358° |
| 2026-05-06 02:12 | 33.93844 | -118.40340 | 101 ft | 16 kts | 84° |
| 2026-05-06 02:12 | 33.93857 | -118.40204 | 102 ft | 17 kts | 84° |
| 2026-05-06 02:13 | 33.93872 | -118.40055 | 102 ft | 19 kts | 85° |
| 2026-05-06 02:13 | 33.93883 | -118.39926 | 102 ft | 11 kts | 82° |
| 2026-05-06 02:13 | 33.93903 | -118.39822 | 100 ft | 14 kts | 47° |
| 2026-05-06 02:13 | 33.94012 | -118.39823 | 96 ft | 17 kts | 355° |
| 2026-05-06 02:14 | 33.94082 | -118.39823 | 93 ft | 0 kts | 27° |
| 2026-05-06 02:14 | 33.94089 | -118.39806 | 94 ft | 7 kts | 70° |
| 2026-05-06 02:14 | 33.94096 | -118.39767 | 93 ft | 1 kts | 83° |
| 2026-05-06 02:14 | 33.94096 | -118.39758 | 93 ft | 0 kts | 83° |